sensor_id;sensor_type;location;lat;lon;timestamp;P1;durP1;ratioP1;P2;durP2;ratioP2
15915;SDS011;8057;47.830;-3.870;2023-04-29T00:03:26;7.90;;;6.63;;
15915;SDS011;8057;47.830;-3.870;2023-04-29T00:07:40;8.37;;;6.83;;
15915;SDS011;8057;47.830;-3.870;2023-04-29T00:11:51;7.30;;;6.60;;
15915;SDS011;8057;47.830;-3.870;2023-04-29T00:16:01;7.53;;;6.60;;
15915;SDS011;8057;47.830;-3.870;2023-04-29T00:20:12;7.10;;;6.40;;
15915;SDS011;8057;47.830;-3.870;2023-04-29T00:24:24;7.07;;;6.47;;
15915;SDS011;8057;47.830;-3.870;2023-04-29T00:28:34;6.97;;;6.37;;
15915;SDS011;8057;47.830;-3.870;2023-04-29T00:32:45;6.97;;;6.27;;
15915;SDS011;8057;47.830;-3.870;2023-04-29T00:36:55;7.20;;;6.50;;
15915;SDS011;8057;47.830;-3.870;2023-04-29T00:41:07;7.00;;;6.33;;
15915;SDS011;8057;47.830;-3.870;2023-04-29T00:45:17;7.50;;;6.63;;
15915;SDS011;8057;47.830;-3.870;2023-04-29T00:49:27;7.70;;;7.00;;
15915;SDS011;8057;47.830;-3.870;2023-04-29T00:53:38;6.90;;;6.30;;
15915;SDS011;8057;47.830;-3.870;2023-04-29T00:57:49;7.77;;;7.07;;
15915;SDS011;8057;47.830;-3.870;2023-04-29T01:02:01;7.30;;;6.60;;
15915;SDS011;8057;47.830;-3.870;2023-04-29T01:06:17;6.10;;;5.50;;
15915;SDS011;8057;47.830;-3.870;2023-04-29T01:10:34;7.07;;;6.13;;
15915;SDS011;8057;47.830;-3.870;2023-04-29T01:14:53;5.40;;;5.00;;
15915;SDS011;8057;47.830;-3.870;2023-04-29T01:19:14;6.47;;;5.63;;
15915;SDS011;8057;47.830;-3.870;2023-04-29T01:23:32;5.93;;;5.43;;
15915;SDS011;8057;47.830;-3.870;2023-04-29T01:27:45;6.03;;;5.53;;
15915;SDS011;8057;47.830;-3.870;2023-04-29T01:32:03;6.07;;;5.47;;
15915;SDS011;8057;47.830;-3.870;2023-04-29T01:36:17;5.70;;;5.23;;
15915;SDS011;8057;47.830;-3.870;2023-04-29T01:40:40;5.93;;;5.43;;
15915;SDS011;8057;47.830;-3.870;2023-04-29T01:45:04;6.87;;;6.27;;
15915;SDS011;8057;47.830;-3.870;2023-04-29T01:49:18;6.97;;;6.37;;
15915;SDS011;8057;47.830;-3.870;2023-04-29T01:53:30;7.50;;;6.77;;
15915;SDS011;8057;47.830;-3.870;2023-04-29T01:57:42;6.73;;;6.03;;
15915;SDS011;8057;47.830;-3.870;2023-04-29T02:01:52;6.90;;;6.30;;
15915;SDS011;8057;47.830;-3.870;2023-04-29T02:06:05;7.60;;;6.57;;
15915;SDS011;8057;47.830;-3.870;2023-04-29T02:10:15;7.40;;;6.53;;
15915;SDS011;8057;47.830;-3.870;2023-04-29T02:14:26;7.13;;;6.43;;
15915;SDS011;8057;47.830;-3.870;2023-04-29T02:18:35;7.40;;;6.77;;
15915;SDS011;8057;47.830;-3.870;2023-04-29T02:22:44;7.90;;;6.83;;
15915;SDS011;8057;47.830;-3.870;2023-04-29T02:26:53;6.70;;;6.10;;
15915;SDS011;8057;47.830;-3.870;2023-04-29T02:31:04;7.90;;;7.10;;
15915;SDS011;8057;47.830;-3.870;2023-04-29T02:35:13;6.67;;;6.07;;
15915;SDS011;8057;47.830;-3.870;2023-04-29T02:39:22;7.37;;;6.67;;
15915;SDS011;8057;47.830;-3.870;2023-04-29T02:43:32;6.77;;;6.17;;
15915;SDS011;8057;47.830;-3.870;2023-04-29T02:47:42;7.03;;;6.43;;
15915;SDS011;8057;47.830;-3.870;2023-04-29T02:51:51;6.70;;;6.10;;
15915;SDS011;8057;47.830;-3.870;2023-04-29T02:56:00;6.20;;;5.67;;
15915;SDS011;8057;47.830;-3.870;2023-04-29T03:00:10;6.93;;;6.40;;
15915;SDS011;8057;47.830;-3.870;2023-04-29T03:04:21;6.97;;;5.83;;
15915;SDS011;8057;47.830;-3.870;2023-04-29T03:08:30;6.90;;;6.23;;
15915;SDS011;8057;47.830;-3.870;2023-04-29T03:12:39;6.87;;;6.27;;
15915;SDS011;8057;47.830;-3.870;2023-04-29T03:16:48;5.90;;;5.40;;
15915;SDS011;8057;47.830;-3.870;2023-04-29T03:20:59;6.23;;;5.73;;
15915;SDS011;8057;47.830;-3.870;2023-04-29T03:25:10;6.07;;;5.60;;
15915;SDS011;8057;47.830;-3.870;2023-04-29T03:29:19;6.40;;;5.90;;
15915;SDS011;8057;47.830;-3.870;2023-04-29T03:33:28;6.47;;;5.87;;
15915;SDS011;8057;47.830;-3.870;2023-04-29T03:37:39;6.60;;;5.33;;
15915;SDS011;8057;47.830;-3.870;2023-04-29T03:41:50;6.50;;;5.97;;
15915;SDS011;8057;47.830;-3.870;2023-04-29T03:45:59;6.13;;;5.63;;
15915;SDS011;8057;47.830;-3.870;2023-04-29T03:50:08;5.77;;;5.27;;
15915;SDS011;8057;47.830;-3.870;2023-04-29T03:54:19;7.00;;;6.40;;
15915;SDS011;8057;47.830;-3.870;2023-04-29T03:58:28;6.63;;;6.00;;
15915;SDS011;8057;47.830;-3.870;2023-04-29T04:02:37;6.47;;;5.87;;
15915;SDS011;8057;47.830;-3.870;2023-04-29T04:06:47;6.13;;;5.67;;
15915;SDS011;8057;47.830;-3.870;2023-04-29T04:10:59;6.80;;;5.97;;
15915;SDS011;8057;47.830;-3.870;2023-04-29T04:15:10;5.60;;;5.03;;
15915;SDS011;8057;47.830;-3.870;2023-04-29T04:19:19;6.70;;;6.13;;
15915;SDS011;8057;47.830;-3.870;2023-04-29T04:23:28;6.60;;;6.10;;
15915;SDS011;8057;47.830;-3.870;2023-04-29T04:27:39;6.60;;;6.03;;
15915;SDS011;8057;47.830;-3.870;2023-04-29T04:31:48;6.50;;;6.00;;
15915;SDS011;8057;47.830;-3.870;2023-04-29T04:35:57;6.50;;;5.87;;
15915;SDS011;8057;47.830;-3.870;2023-04-29T04:40:07;6.40;;;5.80;;
15915;SDS011;8057;47.830;-3.870;2023-04-29T04:44:19;6.07;;;5.47;;
15915;SDS011;8057;47.830;-3.870;2023-04-29T04:48:28;5.93;;;5.43;;
15915;SDS011;8057;47.830;-3.870;2023-04-29T04:52:37;6.60;;;6.10;;
15915;SDS011;8057;47.830;-3.870;2023-04-29T04:56:46;5.83;;;5.33;;
15915;SDS011;8057;47.830;-3.870;2023-04-29T05:00:59;5.77;;;5.27;;
15915;SDS011;8057;47.830;-3.870;2023-04-29T05:05:09;5.43;;;5.03;;
15915;SDS011;8057;47.830;-3.870;2023-04-29T05:09:18;4.57;;;4.27;;
15915;SDS011;8057;47.830;-3.870;2023-04-29T05:13:27;4.93;;;4.50;;
15915;SDS011;8057;47.830;-3.870;2023-04-29T05:17:37;4.90;;;4.50;;
15915;SDS011;8057;47.830;-3.870;2023-04-29T05:21:47;5.30;;;4.80;;
15915;SDS011;8057;47.830;-3.870;2023-04-29T05:25:56;4.43;;;4.13;;
15915;SDS011;8057;47.830;-3.870;2023-04-29T05:30:06;3.73;;;3.53;;
15915;SDS011;8057;47.830;-3.870;2023-04-29T05:34:17;3.70;;;3.47;;
15915;SDS011;8057;47.830;-3.870;2023-04-29T05:38:26;3.83;;;3.60;;
15915;SDS011;8057;47.830;-3.870;2023-04-29T05:42:35;4.30;;;4.00;;
15915;SDS011;8057;47.830;-3.870;2023-04-29T05:46:44;4.40;;;4.10;;
15915;SDS011;8057;47.830;-3.870;2023-04-29T05:50:56;4.50;;;4.10;;
15915;SDS011;8057;47.830;-3.870;2023-04-29T05:55:05;3.50;;;3.20;;
15915;SDS011;8057;47.830;-3.870;2023-04-29T05:59:14;4.17;;;3.87;;
15915;SDS011;8057;47.830;-3.870;2023-04-29T06:03:23;3.87;;;3.60;;
15915;SDS011;8057;47.830;-3.870;2023-04-29T06:07:34;3.73;;;3.43;;
15915;SDS011;8057;47.830;-3.870;2023-04-29T06:11:43;3.40;;;3.20;;
15915;SDS011;8057;47.830;-3.870;2023-04-29T06:15:52;3.37;;;3.17;;
15915;SDS011;8057;47.830;-3.870;2023-04-29T06:20:03;3.37;;;3.07;;
15915;SDS011;8057;47.830;-3.870;2023-04-29T06:24:15;3.73;;;3.43;;
15915;SDS011;8057;47.830;-3.870;2023-04-29T06:28:25;3.27;;;2.97;;
15915;SDS011;8057;47.830;-3.870;2023-04-29T06:32:36;3.53;;;3.33;;
15915;SDS011;8057;47.830;-3.870;2023-04-29T06:36:46;3.03;;;2.83;;
15915;SDS011;8057;47.830;-3.870;2023-04-29T06:41:01;3.13;;;2.53;;
15915;SDS011;8057;47.830;-3.870;2023-04-29T06:45:11;3.47;;;2.57;;
15915;SDS011;8057;47.830;-3.870;2023-04-29T06:49:21;2.90;;;2.70;;
15915;SDS011;8057;47.830;-3.870;2023-04-29T06:53:31;2.70;;;2.40;;
15915;SDS011;8057;47.830;-3.870;2023-04-29T06:57:42;3.50;;;3.20;;
15915;SDS011;8057;47.830;-3.870;2023-04-29T07:01:53;3.33;;;2.83;;
15915;SDS011;8057;47.830;-3.870;2023-04-29T07:06:05;3.57;;;3.27;;
15915;SDS011;8057;47.830;-3.870;2023-04-29T07:10:20;3.40;;;3.20;;
15915;SDS011;8057;47.830;-3.870;2023-04-29T07:14:39;3.13;;;2.40;;
15915;SDS011;8057;47.830;-3.870;2023-04-29T07:18:52;3.00;;;2.80;;
15915;SDS011;8057;47.830;-3.870;2023-04-29T07:23:08;3.30;;;3.10;;
15915;SDS011;8057;47.830;-3.870;2023-04-29T07:27:23;3.20;;;2.90;;
15915;SDS011;8057;47.830;-3.870;2023-04-29T07:31:43;4.27;;;3.37;;
15915;SDS011;8057;47.830;-3.870;2023-04-29T07:35:55;3.30;;;3.03;;
15915;SDS011;8057;47.830;-3.870;2023-04-29T07:40:10;3.67;;;3.37;;
15915;SDS011;8057;47.830;-3.870;2023-04-29T07:44:22;3.03;;;2.73;;
15915;SDS011;8057;47.830;-3.870;2023-04-29T07:48:37;3.70;;;3.40;;
15915;SDS011;8057;47.830;-3.870;2023-04-29T07:52:49;3.37;;;2.57;;
15915;SDS011;8057;47.830;-3.870;2023-04-29T07:57:01;4.30;;;2.80;;
15915;SDS011;8057;47.830;-3.870;2023-04-29T08:01:15;2.90;;;2.70;;
15915;SDS011;8057;47.830;-3.870;2023-04-29T08:05:26;3.10;;;2.80;;
15915;SDS011;8057;47.830;-3.870;2023-04-29T08:09:43;2.93;;;2.73;;
15915;SDS011;8057;47.830;-3.870;2023-04-29T08:13:52;2.60;;;2.40;;
15915;SDS011;8057;47.830;-3.870;2023-04-29T08:18:07;3.13;;;2.90;;
15915;SDS011;8057;47.830;-3.870;2023-04-29T08:22:19;2.80;;;2.60;;
15915;SDS011;8057;47.830;-3.870;2023-04-29T08:26:29;3.23;;;2.97;;
15915;SDS011;8057;47.830;-3.870;2023-04-29T08:30:41;5.03;;;4.33;;
15915;SDS011;8057;47.830;-3.870;2023-04-29T08:34:50;5.50;;;5.00;;
15915;SDS011;8057;47.830;-3.870;2023-04-29T08:39:03;4.10;;;3.80;;
15915;SDS011;8057;47.830;-3.870;2023-04-29T08:43:20;2.93;;;2.73;;
15915;SDS011;8057;47.830;-3.870;2023-04-29T08:47:30;2.80;;;2.60;;
15915;SDS011;8057;47.830;-3.870;2023-04-29T08:51:40;2.67;;;2.43;;
15915;SDS011;8057;47.830;-3.870;2023-04-29T08:55:50;2.67;;;2.47;;
15915;SDS011;8057;47.830;-3.870;2023-04-29T09:00:02;1.63;;;1.40;;
15915;SDS011;8057;47.830;-3.870;2023-04-29T09:04:21;2.13;;;1.97;;
15915;SDS011;8057;47.830;-3.870;2023-04-29T09:08:44;1.60;;;1.50;;
15915;SDS011;8057;47.830;-3.870;2023-04-29T09:12:56;1.43;;;1.33;;
15915;SDS011;8057;47.830;-3.870;2023-04-29T09:17:07;1.70;;;1.60;;
15915;SDS011;8057;47.830;-3.870;2023-04-29T09:21:17;2.60;;;1.40;;
15915;SDS011;8057;47.830;-3.870;2023-04-29T09:25:28;2.00;;;1.90;;
15915;SDS011;8057;47.830;-3.870;2023-04-29T09:29:39;1.90;;;1.80;;
15915;SDS011;8057;47.830;-3.870;2023-04-29T09:34:15;1.83;;;1.73;;
15915;SDS011;8057;47.830;-3.870;2023-04-29T09:38:24;1.57;;;1.47;;
15915;SDS011;8057;47.830;-3.870;2023-04-29T09:42:40;1.60;;;1.50;;
15915;SDS011;8057;47.830;-3.870;2023-04-29T09:46:55;1.70;;;1.53;;
15915;SDS011;8057;47.830;-3.870;2023-04-29T09:51:04;1.50;;;1.40;;
15915;SDS011;8057;47.830;-3.870;2023-04-29T09:55:13;2.33;;;2.13;;
15915;SDS011;8057;47.830;-3.870;2023-04-29T09:59:24;1.70;;;1.60;;
15915;SDS011;8057;47.830;-3.870;2023-04-29T10:03:37;2.53;;;2.37;;
15915;SDS011;8057;47.830;-3.870;2023-04-29T10:07:48;1.80;;;1.70;;
15915;SDS011;8057;47.830;-3.870;2023-04-29T10:12:00;3.23;;;2.87;;
15915;SDS011;8057;47.830;-3.870;2023-04-29T10:16:18;2.27;;;2.00;;
15915;SDS011;8057;47.830;-3.870;2023-04-29T10:20:44;2.50;;;2.40;;
15915;SDS011;8057;47.830;-3.870;2023-04-29T10:24:56;2.63;;;2.43;;
15915;SDS011;8057;47.830;-3.870;2023-04-29T10:29:09;2.50;;;2.37;;
15915;SDS011;8057;47.830;-3.870;2023-04-29T10:33:21;3.20;;;3.00;;
15915;SDS011;8057;47.830;-3.870;2023-04-29T10:37:32;2.87;;;2.67;;
15915;SDS011;8057;47.830;-3.870;2023-04-29T10:41:47;2.87;;;2.67;;
15915;SDS011;8057;47.830;-3.870;2023-04-29T10:46:20;3.00;;;2.80;;
15915;SDS011;8057;47.830;-3.870;2023-04-29T10:50:32;2.37;;;2.17;;
15915;SDS011;8057;47.830;-3.870;2023-04-29T10:55:02;2.03;;;1.90;;
15915;SDS011;8057;47.830;-3.870;2023-04-29T10:59:15;3.17;;;2.67;;
15915;SDS011;8057;47.830;-3.870;2023-04-29T11:08:09;2.93;;;2.73;;
15915;SDS011;8057;47.830;-3.870;2023-04-29T11:12:23;3.80;;;2.90;;
15915;SDS011;8057;47.830;-3.870;2023-04-29T11:16:37;3.30;;;3.00;;
15915;SDS011;8057;47.830;-3.870;2023-04-29T11:21:16;3.17;;;2.87;;
15915;SDS011;8057;47.830;-3.870;2023-04-29T11:25:27;3.20;;;2.50;;
15915;SDS011;8057;47.830;-3.870;2023-04-29T11:29:38;2.90;;;2.70;;
15915;SDS011;8057;47.830;-3.870;2023-04-29T11:33:47;3.50;;;3.23;;
15915;SDS011;8057;47.830;-3.870;2023-04-29T11:37:57;4.20;;;3.23;;
15915;SDS011;8057;47.830;-3.870;2023-04-29T11:42:11;3.40;;;3.20;;
15915;SDS011;8057;47.830;-3.870;2023-04-29T11:46:22;4.40;;;3.30;;
15915;SDS011;8057;47.830;-3.870;2023-04-29T11:50:31;3.20;;;3.00;;
15915;SDS011;8057;47.830;-3.870;2023-04-29T11:54:43;3.80;;;3.60;;
15915;SDS011;8057;47.830;-3.870;2023-04-29T11:58:58;2.83;;;2.70;;
15915;SDS011;8057;47.830;-3.870;2023-04-29T12:03:16;3.13;;;2.93;;
15915;SDS011;8057;47.830;-3.870;2023-04-29T12:07:26;3.03;;;2.83;;
15915;SDS011;8057;47.830;-3.870;2023-04-29T12:11:35;3.70;;;3.40;;
15915;SDS011;8057;47.830;-3.870;2023-04-29T12:15:47;3.53;;;3.33;;
15915;SDS011;8057;47.830;-3.870;2023-04-29T12:20:02;3.80;;;3.50;;
15915;SDS011;8057;47.830;-3.870;2023-04-29T12:24:13;3.20;;;3.00;;
15915;SDS011;8057;47.830;-3.870;2023-04-29T12:28:25;2.87;;;2.67;;
15915;SDS011;8057;47.830;-3.870;2023-04-29T12:32:38;3.17;;;2.90;;
15915;SDS011;8057;47.830;-3.870;2023-04-29T12:36:50;3.13;;;2.93;;
15915;SDS011;8057;47.830;-3.870;2023-04-29T12:41:08;3.03;;;2.83;;
15915;SDS011;8057;47.830;-3.870;2023-04-29T12:45:26;3.23;;;2.97;;
15915;SDS011;8057;47.830;-3.870;2023-04-29T12:49:37;3.17;;;2.87;;
15915;SDS011;8057;47.830;-3.870;2023-04-29T12:54:00;2.83;;;2.53;;
15915;SDS011;8057;47.830;-3.870;2023-04-29T12:58:17;3.23;;;2.97;;
15915;SDS011;8057;47.830;-3.870;2023-04-29T13:02:27;3.50;;;3.30;;
15915;SDS011;8057;47.830;-3.870;2023-04-29T13:06:40;2.70;;;2.60;;
15915;SDS011;8057;47.830;-3.870;2023-04-29T13:10:55;3.30;;;3.10;;
15915;SDS011;8057;47.830;-3.870;2023-04-29T13:15:09;3.10;;;2.90;;
15915;SDS011;8057;47.830;-3.870;2023-04-29T13:19:25;4.23;;;3.20;;
15915;SDS011;8057;47.830;-3.870;2023-04-29T13:23:56;2.97;;;2.87;;
15915;SDS011;8057;47.830;-3.870;2023-04-29T13:28:08;2.53;;;2.37;;
15915;SDS011;8057;47.830;-3.870;2023-04-29T13:32:20;3.20;;;3.00;;
15915;SDS011;8057;47.830;-3.870;2023-04-29T13:36:33;3.37;;;3.17;;
15915;SDS011;8057;47.830;-3.870;2023-04-29T13:40:42;3.20;;;2.83;;
15915;SDS011;8057;47.830;-3.870;2023-04-29T13:44:59;3.00;;;2.80;;
15915;SDS011;8057;47.830;-3.870;2023-04-29T13:49:12;3.73;;;3.13;;
15915;SDS011;8057;47.830;-3.870;2023-04-29T13:53:42;3.40;;;3.20;;
15915;SDS011;8057;47.830;-3.870;2023-04-29T13:58:11;3.03;;;2.83;;
15915;SDS011;8057;47.830;-3.870;2023-04-29T14:02:47;3.13;;;2.93;;
15915;SDS011;8057;47.830;-3.870;2023-04-29T14:06:59;2.93;;;2.73;;
15915;SDS011;8057;47.830;-3.870;2023-04-29T14:11:08;3.23;;;2.93;;
15915;SDS011;8057;47.830;-3.870;2023-04-29T14:15:24;3.00;;;2.80;;
15915;SDS011;8057;47.830;-3.870;2023-04-29T14:19:36;2.80;;;2.60;;
15915;SDS011;8057;47.830;-3.870;2023-04-29T14:23:45;2.50;;;2.40;;
15915;SDS011;8057;47.830;-3.870;2023-04-29T14:27:54;2.60;;;2.40;;
15915;SDS011;8057;47.830;-3.870;2023-04-29T14:32:09;2.20;;;2.10;;
15915;SDS011;8057;47.830;-3.870;2023-04-29T14:36:20;3.40;;;2.67;;
15915;SDS011;8057;47.830;-3.870;2023-04-29T14:40:30;3.00;;;2.70;;
15915;SDS011;8057;47.830;-3.870;2023-04-29T14:44:45;2.33;;;2.13;;
15915;SDS011;8057;47.830;-3.870;2023-04-29T14:49:00;2.73;;;2.53;;
15915;SDS011;8057;47.830;-3.870;2023-04-29T14:53:11;2.60;;;2.40;;
15915;SDS011;8057;47.830;-3.870;2023-04-29T14:57:25;2.67;;;2.47;;
15915;SDS011;8057;47.830;-3.870;2023-04-29T15:01:35;2.60;;;2.40;;
15915;SDS011;8057;47.830;-3.870;2023-04-29T15:05:45;3.20;;;2.80;;
15915;SDS011;8057;47.830;-3.870;2023-04-29T15:09:58;2.63;;;2.43;;
15915;SDS011;8057;47.830;-3.870;2023-04-29T15:14:12;2.63;;;2.43;;
15915;SDS011;8057;47.830;-3.870;2023-04-29T15:18:22;2.73;;;2.27;;
15915;SDS011;8057;47.830;-3.870;2023-04-29T15:22:32;2.80;;;2.60;;
15915;SDS011;8057;47.830;-3.870;2023-04-29T15:26:49;3.57;;;3.13;;
15915;SDS011;8057;47.830;-3.870;2023-04-29T15:31:01;2.80;;;2.60;;
15915;SDS011;8057;47.830;-3.870;2023-04-29T15:35:12;2.23;;;2.07;;
15915;SDS011;8057;47.830;-3.870;2023-04-29T15:39:24;2.77;;;2.57;;
15915;SDS011;8057;47.830;-3.870;2023-04-29T15:43:35;2.57;;;2.40;;
15915;SDS011;8057;47.830;-3.870;2023-04-29T15:47:46;3.20;;;2.90;;
15915;SDS011;8057;47.830;-3.870;2023-04-29T15:51:57;2.97;;;2.67;;
15915;SDS011;8057;47.830;-3.870;2023-04-29T15:56:11;2.67;;;2.47;;
15915;SDS011;8057;47.830;-3.870;2023-04-29T16:00:22;2.40;;;2.20;;
15915;SDS011;8057;47.830;-3.870;2023-04-29T16:04:31;2.80;;;2.60;;
15915;SDS011;8057;47.830;-3.870;2023-04-29T16:08:42;2.40;;;2.20;;
15915;SDS011;8057;47.830;-3.870;2023-04-29T16:12:56;2.60;;;2.40;;
15915;SDS011;8057;47.830;-3.870;2023-04-29T16:17:06;2.80;;;2.60;;
15915;SDS011;8057;47.830;-3.870;2023-04-29T16:21:18;2.60;;;2.40;;
15915;SDS011;8057;47.830;-3.870;2023-04-29T16:25:27;3.40;;;2.47;;
15915;SDS011;8057;47.830;-3.870;2023-04-29T16:29:38;2.47;;;2.27;;
15915;SDS011;8057;47.830;-3.870;2023-04-29T16:33:49;3.27;;;2.50;;
15915;SDS011;8057;47.830;-3.870;2023-04-29T16:37:58;2.60;;;2.40;;
15915;SDS011;8057;47.830;-3.870;2023-04-29T16:42:11;2.73;;;2.53;;
15915;SDS011;8057;47.830;-3.870;2023-04-29T16:46:20;3.67;;;2.90;;
15915;SDS011;8057;47.830;-3.870;2023-04-29T16:50:31;3.37;;;3.00;;
15915;SDS011;8057;47.830;-3.870;2023-04-29T16:54:42;3.47;;;3.17;;
15915;SDS011;8057;47.830;-3.870;2023-04-29T16:58:52;5.20;;;4.80;;
15915;SDS011;8057;47.830;-3.870;2023-04-29T17:03:01;6.03;;;4.90;;
15915;SDS011;8057;47.830;-3.870;2023-04-29T17:07:16;3.73;;;3.43;;
15915;SDS011;8057;47.830;-3.870;2023-04-29T17:11:28;3.33;;;3.03;;
15915;SDS011;8057;47.830;-3.870;2023-04-29T17:15:43;3.77;;;2.70;;
15915;SDS011;8057;47.830;-3.870;2023-04-29T17:19:54;2.70;;;2.50;;
15915;SDS011;8057;47.830;-3.870;2023-04-29T17:24:05;3.13;;;2.20;;
15915;SDS011;8057;47.830;-3.870;2023-04-29T17:28:18;3.80;;;2.37;;
15915;SDS011;8057;47.830;-3.870;2023-04-29T17:32:28;3.57;;;2.60;;
15915;SDS011;8057;47.830;-3.870;2023-04-29T17:36:45;2.87;;;2.50;;
15915;SDS011;8057;47.830;-3.870;2023-04-29T17:41:05;3.20;;;2.33;;
15915;SDS011;8057;47.830;-3.870;2023-04-29T17:45:20;1.77;;;1.67;;
15915;SDS011;8057;47.830;-3.870;2023-04-29T17:49:31;2.77;;;2.20;;
15915;SDS011;8057;47.830;-3.870;2023-04-29T17:53:43;2.33;;;2.10;;
15915;SDS011;8057;47.830;-3.870;2023-04-29T17:57:58;3.00;;;2.00;;
15915;SDS011;8057;47.830;-3.870;2023-04-29T18:02:09;2.47;;;1.87;;
15915;SDS011;8057;47.830;-3.870;2023-04-29T18:06:21;2.20;;;1.50;;
15915;SDS011;8057;47.830;-3.870;2023-04-29T18:10:36;1.90;;;1.70;;
15915;SDS011;8057;47.830;-3.870;2023-04-29T18:14:50;3.03;;;2.40;;
15915;SDS011;8057;47.830;-3.870;2023-04-29T18:19:01;5.00;;;2.10;;
15915;SDS011;8057;47.830;-3.870;2023-04-29T18:23:22;2.50;;;2.30;;
15915;SDS011;8057;47.830;-3.870;2023-04-29T18:27:33;3.37;;;2.80;;
15915;SDS011;8057;47.830;-3.870;2023-04-29T18:31:48;3.43;;;2.97;;
15915;SDS011;8057;47.830;-3.870;2023-04-29T18:36:15;2.80;;;2.50;;
15915;SDS011;8057;47.830;-3.870;2023-04-29T18:40:31;3.00;;;2.80;;
15915;SDS011;8057;47.830;-3.870;2023-04-29T18:44:44;2.90;;;2.70;;
15915;SDS011;8057;47.830;-3.870;2023-04-29T18:49:01;3.53;;;2.57;;
15915;SDS011;8057;47.830;-3.870;2023-04-29T18:53:27;3.00;;;2.70;;
15915;SDS011;8057;47.830;-3.870;2023-04-29T18:58:02;2.83;;;2.10;;
15915;SDS011;8057;47.830;-3.870;2023-04-29T19:02:19;3.47;;;2.23;;
15915;SDS011;8057;47.830;-3.870;2023-04-29T19:07:00;4.77;;;1.80;;
15915;SDS011;8057;47.830;-3.870;2023-04-29T19:11:12;2.73;;;2.47;;
15915;SDS011;8057;47.830;-3.870;2023-04-29T19:15:30;2.67;;;2.27;;
15915;SDS011;8057;47.830;-3.870;2023-04-29T19:20:09;3.33;;;2.60;;
15915;SDS011;8057;47.830;-3.870;2023-04-29T19:24:27;3.73;;;3.17;;
15915;SDS011;8057;47.830;-3.870;2023-04-29T19:28:38;3.83;;;3.07;;
15915;SDS011;8057;47.830;-3.870;2023-04-29T19:32:51;4.87;;;3.40;;
15915;SDS011;8057;47.830;-3.870;2023-04-29T19:37:01;3.70;;;3.40;;
15915;SDS011;8057;47.830;-3.870;2023-04-29T19:41:16;3.57;;;2.93;;
15915;SDS011;8057;47.830;-3.870;2023-04-29T19:45:31;4.30;;;3.10;;
15915;SDS011;8057;47.830;-3.870;2023-04-29T19:49:46;2.80;;;2.60;;
15915;SDS011;8057;47.830;-3.870;2023-04-29T19:54:00;2.80;;;2.60;;
15915;SDS011;8057;47.830;-3.870;2023-04-29T19:58:14;3.40;;;3.10;;
15915;SDS011;8057;47.830;-3.870;2023-04-29T20:02:25;3.60;;;3.33;;
15915;SDS011;8057;47.830;-3.870;2023-04-29T20:06:36;3.53;;;3.23;;
15915;SDS011;8057;47.830;-3.870;2023-04-29T20:10:49;3.60;;;3.30;;
15915;SDS011;8057;47.830;-3.870;2023-04-29T20:15:04;4.30;;;4.00;;
15915;SDS011;8057;47.830;-3.870;2023-04-29T20:19:16;3.53;;;3.33;;
15915;SDS011;8057;47.830;-3.870;2023-04-29T20:23:27;4.57;;;4.10;;
15915;SDS011;8057;47.830;-3.870;2023-04-29T20:27:38;4.43;;;4.13;;
15915;SDS011;8057;47.830;-3.870;2023-04-29T20:31:53;3.97;;;3.67;;
15915;SDS011;8057;47.830;-3.870;2023-04-29T20:36:05;5.47;;;4.97;;
15915;SDS011;8057;47.830;-3.870;2023-04-29T20:40:16;5.47;;;5.07;;
15915;SDS011;8057;47.830;-3.870;2023-04-29T20:44:26;4.67;;;4.37;;
15915;SDS011;8057;47.830;-3.870;2023-04-29T20:48:41;5.30;;;4.73;;
15915;SDS011;8057;47.830;-3.870;2023-04-29T20:52:52;4.67;;;4.20;;
15915;SDS011;8057;47.830;-3.870;2023-04-29T20:57:02;6.07;;;5.50;;
15915;SDS011;8057;47.830;-3.870;2023-04-29T21:01:14;5.90;;;5.40;;
15915;SDS011;8057;47.830;-3.870;2023-04-29T21:05:28;5.60;;;5.20;;
15915;SDS011;8057;47.830;-3.870;2023-04-29T21:09:40;7.33;;;5.63;;
15915;SDS011;8057;47.830;-3.870;2023-04-29T21:14:03;4.47;;;4.17;;
15915;SDS011;8057;47.830;-3.870;2023-04-29T21:18:25;5.07;;;4.67;;
15915;SDS011;8057;47.830;-3.870;2023-04-29T21:22:36;4.03;;;3.70;;
15915;SDS011;8057;47.830;-3.870;2023-04-29T21:26:47;3.77;;;3.57;;
15915;SDS011;8057;47.830;-3.870;2023-04-29T21:31:01;3.80;;;3.50;;
15915;SDS011;8057;47.830;-3.870;2023-04-29T21:35:11;4.23;;;3.83;;
15915;SDS011;8057;47.830;-3.870;2023-04-29T21:39:25;4.07;;;3.77;;
15915;SDS011;8057;47.830;-3.870;2023-04-29T21:43:41;4.53;;;4.23;;
15915;SDS011;8057;47.830;-3.870;2023-04-29T21:47:53;4.70;;;4.40;;
15915;SDS011;8057;47.830;-3.870;2023-04-29T21:52:07;5.57;;;5.17;;
15915;SDS011;8057;47.830;-3.870;2023-04-29T21:56:20;7.03;;;6.33;;
15915;SDS011;8057;47.830;-3.870;2023-04-29T22:00:30;6.33;;;5.73;;
15915;SDS011;8057;47.830;-3.870;2023-04-29T22:04:43;6.10;;;5.50;;
15915;SDS011;8057;47.830;-3.870;2023-04-29T22:08:54;7.00;;;6.30;;
15915;SDS011;8057;47.830;-3.870;2023-04-29T22:13:09;9.37;;;7.33;;
15915;SDS011;8057;47.830;-3.870;2023-04-29T22:17:22;7.80;;;7.10;;
15915;SDS011;8057;47.830;-3.870;2023-04-29T22:21:35;6.77;;;6.27;;
15915;SDS011;8057;47.830;-3.870;2023-04-29T22:25:47;6.43;;;5.93;;
15915;SDS011;8057;47.830;-3.870;2023-04-29T22:29:58;7.67;;;6.97;;
15915;SDS011;8057;47.830;-3.870;2023-04-29T22:34:09;8.17;;;7.40;;
15915;SDS011;8057;47.830;-3.870;2023-04-29T22:38:20;7.13;;;6.53;;
15915;SDS011;8057;47.830;-3.870;2023-04-29T22:42:31;8.67;;;7.97;;
15915;SDS011;8057;47.830;-3.870;2023-04-29T22:46:43;8.43;;;7.63;;
15915;SDS011;8057;47.830;-3.870;2023-04-29T22:50:54;8.33;;;7.63;;
15915;SDS011;8057;47.830;-3.870;2023-04-29T22:55:07;8.83;;;7.93;;
15915;SDS011;8057;47.830;-3.870;2023-04-29T22:59:18;9.60;;;8.70;;
15915;SDS011;8057;47.830;-3.870;2023-04-29T23:03:30;8.87;;;8.00;;
15915;SDS011;8057;47.830;-3.870;2023-04-29T23:07:42;8.30;;;7.60;;
15915;SDS011;8057;47.830;-3.870;2023-04-29T23:11:52;10.03;;;9.03;;
15915;SDS011;8057;47.830;-3.870;2023-04-29T23:16:03;9.30;;;8.33;;
15915;SDS011;8057;47.830;-3.870;2023-04-29T23:20:17;8.20;;;7.60;;
15915;SDS011;8057;47.830;-3.870;2023-04-29T23:24:28;9.03;;;8.33;;
15915;SDS011;8057;47.830;-3.870;2023-04-29T23:28:40;10.07;;;9.07;;
15915;SDS011;8057;47.830;-3.870;2023-04-29T23:32:50;10.43;;;9.37;;
15915;SDS011;8057;47.830;-3.870;2023-04-29T23:37:02;9.30;;;8.53;;
15915;SDS011;8057;47.830;-3.870;2023-04-29T23:41:12;10.13;;;9.27;;
15915;SDS011;8057;47.830;-3.870;2023-04-29T23:45:23;8.80;;;8.07;;
15915;SDS011;8057;47.830;-3.870;2023-04-29T23:49:34;9.13;;;8.43;;
15915;SDS011;8057;47.830;-3.870;2023-04-29T23:53:46;9.87;;;8.70;;
15915;SDS011;8057;47.830;-3.870;2023-04-29T23:57:57;8.33;;;7.53;;
